createdAt,value
2023-05-11T00:00:20.617Z,13.10
2023-05-11T00:02:49.211Z,13.00
2023-05-11T00:05:19.529Z,13.00
2023-05-11T00:07:48.067Z,13.00
2023-05-11T00:10:16.764Z,13.00
2023-05-11T00:12:45.526Z,12.90
2023-05-11T00:15:14.017Z,12.90
2023-05-11T00:17:43.102Z,12.80
2023-05-11T00:20:12.450Z,12.90
2023-05-11T00:22:44.760Z,12.90
2023-05-11T00:25:13.616Z,13.00
2023-05-11T00:27:46.158Z,13.00
2023-05-11T00:30:16.310Z,13.10
2023-05-11T00:32:49.700Z,13.10
2023-05-11T00:35:18.316Z,13.00
2023-05-11T00:37:48.433Z,13.00
2023-05-11T00:40:17.190Z,13.00
2023-05-11T00:42:45.936Z,13.00
2023-05-11T00:45:14.396Z,13.00
2023-05-11T00:47:44.680Z,13.00
2023-05-11T00:50:13.256Z,13.00
2023-05-11T00:52:43.028Z,12.90
2023-05-11T00:55:14.837Z,12.90
2023-05-11T00:57:43.481Z,12.90
2023-05-11T01:00:13.039Z,13.00
2023-05-11T01:02:44.437Z,13.00
2023-05-11T01:05:13.335Z,12.90
2023-05-11T01:07:50.294Z,12.80
2023-05-11T01:10:29.266Z,12.90
2023-05-11T01:13:09.566Z,12.90
2023-05-11T01:15:44.534Z,13.00
2023-05-11T01:18:19.674Z,13.00
2023-05-11T01:20:49.747Z,12.90
2023-05-11T01:23:53.977Z,12.90
2023-05-11T01:26:46.341Z,12.90
2023-05-11T01:29:44.451Z,12.90
2023-05-11T01:32:19.976Z,12.90
2023-05-11T01:34:50.422Z,12.80
2023-05-11T01:37:23.979Z,12.70
2023-05-11T01:39:56.467Z,12.60
2023-05-11T01:42:29.888Z,12.60
2023-05-11T01:44:59.588Z,12.60
2023-05-11T01:47:31.568Z,12.60
2023-05-11T01:50:02.492Z,12.70
2023-05-11T01:52:33.669Z,12.60
2023-05-11T01:55:05.705Z,12.60
2023-05-11T01:57:35.592Z,12.60
2023-05-11T02:00:08.237Z,12.60
2023-05-11T02:02:38.996Z,12.60
2023-05-11T02:05:09.956Z,12.60
2023-05-11T02:07:44.458Z,12.70
2023-05-11T02:10:15.378Z,12.70
2023-05-11T02:12:46.364Z,12.80
2023-05-11T02:15:16.329Z,12.80
2023-05-11T02:17:46.348Z,12.80
2023-05-11T02:20:17.157Z,12.80
2023-05-11T02:22:47.212Z,12.70
2023-05-11T02:25:16.902Z,12.70
2023-05-11T02:27:46.016Z,12.70
2023-05-11T02:30:15.064Z,12.60
2023-05-11T02:32:49.696Z,12.60
2023-05-11T02:35:23.111Z,12.60
2023-05-11T02:37:54.083Z,12.60
2023-05-11T02:40:29.644Z,12.60
2023-05-11T02:43:00.589Z,12.70
2023-05-11T02:45:33.155Z,12.70
2023-05-11T02:48:10.109Z,12.80
2023-05-11T02:50:41.783Z,12.70
2023-05-11T02:53:16.468Z,12.60
2023-05-11T02:55:45.112Z,12.50
2023-05-11T02:58:13.734Z,12.50
2023-05-11T03:00:42.788Z,12.50
2023-05-11T03:03:13.289Z,12.40
2023-05-11T03:05:42.082Z,12.40
2023-05-11T03:08:10.642Z,12.50
2023-05-11T03:10:40.223Z,12.50
2023-05-11T03:13:10.129Z,12.50
2023-05-11T03:15:39.217Z,12.40
2023-05-11T03:18:09.515Z,12.40
2023-05-11T03:20:41.961Z,12.40
2023-05-11T03:23:11.839Z,12.50
2023-05-11T03:25:42.601Z,12.50
2023-05-11T03:28:11.895Z,12.60
2023-05-11T03:30:41.925Z,12.60
2023-05-11T03:33:11.006Z,12.70
2023-05-11T03:35:44.475Z,12.70
2023-05-11T03:38:14.243Z,12.50
2023-05-11T03:40:44.203Z,12.50
2023-05-11T03:43:16.216Z,12.50
2023-05-11T03:45:45.742Z,12.50
2023-05-11T03:48:17.040Z,12.60
2023-05-11T03:50:47.551Z,12.70
2023-05-11T03:53:16.946Z,12.80
2023-05-11T03:55:45.497Z,12.90
2023-05-11T03:58:14.012Z,12.90
2023-05-11T04:00:43.733Z,12.90
2023-05-11T04:03:12.729Z,12.80
2023-05-11T04:05:42.771Z,12.90
2023-05-11T04:08:13.231Z,12.90
2023-05-11T04:10:41.881Z,12.90
2023-05-11T04:13:10.499Z,13.00
2023-05-11T04:15:39.068Z,13.00
2023-05-11T04:18:07.691Z,12.90
2023-05-11T04:20:36.252Z,13.00
2023-05-11T04:23:04.812Z,12.90
2023-05-11T04:25:34.847Z,12.90
2023-05-11T04:28:03.353Z,12.90
2023-05-11T04:30:31.884Z,12.90
2023-05-11T04:33:00.466Z,13.00
2023-05-11T04:35:29.191Z,13.00
2023-05-11T04:37:58.090Z,13.00
2023-05-11T04:40:26.873Z,13.10
2023-05-11T04:42:57.392Z,13.20
2023-05-11T04:45:25.945Z,13.20
2023-05-11T04:47:54.506Z,13.30
2023-05-11T04:50:23.025Z,13.30
2023-05-11T04:52:51.963Z,13.30
2023-05-11T04:55:21.481Z,13.30
2023-05-11T04:57:49.972Z,13.40
2023-05-11T05:00:21.278Z,13.40
2023-05-11T05:02:50.911Z,13.40
2023-05-11T05:05:19.932Z,13.40
2023-05-11T05:07:48.542Z,13.40
2023-05-11T05:10:17.331Z,13.50
2023-05-11T05:12:46.356Z,13.50
2023-05-11T05:15:15.034Z,13.50
2023-05-11T05:17:45.010Z,13.50
2023-05-11T05:20:13.870Z,13.50
2023-05-11T05:22:45.487Z,13.50
2023-05-11T05:25:14.040Z,13.40
2023-05-11T05:27:43.085Z,13.50
2023-05-11T05:30:11.966Z,13.40
2023-05-11T05:32:40.734Z,13.20
2023-05-11T05:35:11.195Z,13.10
2023-05-11T05:37:40.177Z,13.20
2023-05-11T05:40:10.228Z,13.30
2023-05-11T05:42:38.666Z,13.30
2023-05-11T05:45:08.273Z,13.40
2023-05-11T05:47:36.776Z,13.50
2023-05-11T05:50:06.089Z,13.50
2023-05-11T05:52:35.985Z,13.50
2023-05-11T05:55:04.534Z,13.50
2023-05-11T05:57:33.353Z,13.50
2023-05-11T06:00:01.885Z,13.40
2023-05-11T06:02:30.458Z,13.30
2023-05-11T06:04:59.237Z,13.30
2023-05-11T06:07:27.893Z,13.40
2023-05-11T06:09:57.807Z,13.50
2023-05-11T06:12:26.412Z,13.60
2023-05-11T06:14:54.951Z,13.50
2023-05-11T06:17:23.816Z,13.60
2023-05-11T06:19:52.471Z,13.70
2023-05-11T06:22:21.024Z,13.70
2023-05-11T06:24:49.530Z,13.80
2023-05-11T06:27:19.470Z,13.80
2023-05-11T06:29:48.040Z,13.90
2023-05-11T06:32:16.939Z,13.70
2023-05-11T06:34:45.396Z,13.60
2023-05-11T06:37:20.425Z,13.50
2023-05-11T06:39:48.935Z,13.50
2023-05-11T06:42:18.960Z,13.60
2023-05-11T06:44:47.546Z,13.60
2023-05-11T06:47:16.871Z,13.60
2023-05-11T06:49:45.344Z,13.60
2023-05-11T06:52:14.445Z,13.70
2023-05-11T06:54:43.808Z,13.70
2023-05-11T06:57:14.318Z,13.70
2023-05-11T06:59:45.317Z,13.80
2023-05-11T07:02:13.886Z,13.90
2023-05-11T07:04:43.073Z,14.10
2023-05-11T07:07:12.413Z,14.20
2023-05-11T07:09:42.106Z,14.20
2023-05-11T07:12:10.715Z,14.30
2023-05-11T07:14:39.258Z,14.40
2023-05-11T07:17:09.403Z,14.50
2023-05-11T07:19:37.903Z,14.40
2023-05-11T07:22:06.468Z,14.50
2023-05-11T07:24:34.939Z,14.40
2023-05-11T07:27:03.463Z,14.40
2023-05-11T07:29:32.044Z,14.30
2023-05-11T07:32:00.730Z,14.20
2023-05-11T07:34:30.664Z,14.00
2023-05-11T07:36:59.255Z,13.90
2023-05-11T07:39:27.839Z,13.90
2023-05-11T07:41:56.353Z,13.90
2023-05-11T07:44:24.936Z,14.10
2023-05-11T07:46:53.435Z,14.10
2023-05-11T07:49:28.260Z,14.20
2023-05-11T07:52:01.347Z,14.30
2023-05-11T07:54:29.894Z,14.20
2023-05-11T07:56:58.515Z,14.20
2023-05-11T07:59:27.269Z,14.20
2023-05-11T08:01:55.812Z,14.20
2023-05-11T08:04:24.723Z,14.20
2023-05-11T08:06:53.481Z,14.30
2023-05-11T08:09:24.112Z,14.50
2023-05-11T08:11:53.375Z,14.40
2023-05-11T08:14:22.363Z,14.50
2023-05-11T08:16:50.933Z,14.50
2023-05-11T08:19:19.545Z,14.50
2023-05-11T08:21:48.072Z,14.40
2023-05-11T08:24:16.645Z,14.40
2023-05-11T08:26:46.575Z,14.50
2023-05-11T08:29:15.075Z,14.70
2023-05-11T08:31:43.800Z,14.90
2023-05-11T08:34:19.101Z,15.10
2023-05-11T08:36:48.536Z,15.00
2023-05-11T08:39:32.906Z,15.00
2023-05-11T08:42:07.760Z,15.10
2023-05-11T08:44:38.039Z,15.10
2023-05-11T08:47:21.899Z,15.10
2023-05-11T08:49:53.012Z,15.10
2023-05-11T08:52:22.184Z,15.10
2023-05-11T08:54:50.696Z,15.00
2023-05-11T08:57:21.590Z,15.00
2023-05-11T08:59:50.579Z,15.00
2023-05-11T09:02:20.421Z,15.10
2023-05-11T09:04:51.238Z,15.00
2023-05-11T09:07:20.666Z,14.90
2023-05-11T09:09:49.551Z,14.90
2023-05-11T09:12:20.388Z,15.00
2023-05-11T09:14:48.903Z,15.10
2023-05-11T09:17:17.341Z,15.40
2023-05-11T09:20:00.344Z,15.70
2023-05-11T09:22:31.013Z,15.70
2023-05-11T09:25:01.865Z,15.80
2023-05-11T09:27:32.544Z,16.00
2023-05-11T09:30:13.722Z,16.20
2023-05-11T09:32:50.592Z,16.40
2023-05-11T09:35:26.709Z,16.40
2023-05-11T09:38:04.808Z,16.40
2023-05-11T09:40:34.872Z,16.40
2023-05-11T09:43:05.457Z,16.30
2023-05-11T09:45:41.802Z,16.30
2023-05-11T09:48:26.350Z,16.40
2023-05-11T09:51:01.541Z,16.50
2023-05-11T09:53:38.026Z,16.50
2023-05-11T09:56:07.093Z,16.40
2023-05-11T09:58:50.725Z,16.30
2023-05-11T10:01:21.179Z,16.40
2023-05-11T10:03:52.239Z,16.50
2023-05-11T10:06:21.567Z,16.70
2023-05-11T10:08:50.417Z,16.80
2023-05-11T10:11:19.237Z,16.70
2023-05-11T10:13:49.624Z,16.50
2023-05-11T10:16:18.419Z,16.50
2023-05-11T10:18:47.639Z,16.50
2023-05-11T10:21:18.008Z,16.40
2023-05-11T10:23:46.889Z,16.50
2023-05-11T10:26:16.380Z,16.70
2023-05-11T10:28:45.110Z,16.60
2023-05-11T10:31:17.302Z,16.60
2023-05-11T10:33:48.617Z,16.60
2023-05-11T10:36:19.390Z,16.50
2023-05-11T10:38:48.147Z,16.30
2023-05-11T10:41:31.804Z,16.10
2023-05-11T10:44:35.532Z,16.10
2023-05-11T10:47:10.104Z,16.00
2023-05-11T10:50:04.597Z,16.10
2023-05-11T10:52:58.172Z,16.20
2023-05-11T10:55:39.583Z,16.10
2023-05-11T10:58:10.760Z,16.20
2023-05-11T11:01:27.825Z,16.10
2023-05-11T11:04:03.051Z,16.00
2023-05-11T11:06:32.446Z,16.10
2023-05-11T11:09:02.893Z,16.10
2023-05-11T11:11:33.555Z,16.20
2023-05-11T11:14:05.819Z,16.40
2023-05-11T11:16:34.913Z,16.50
2023-05-11T11:19:39.265Z,16.70
2023-05-11T11:22:28.206Z,16.80
2023-05-11T11:24:56.730Z,16.90
2023-05-11T11:27:57.047Z,17.00
2023-05-11T11:30:27.060Z,17.00
2023-05-11T11:32:57.465Z,17.00
2023-05-11T11:35:49.121Z,17.00
2023-05-11T11:38:19.540Z,17.00
2023-05-11T11:40:51.245Z,17.10
2023-05-11T11:43:22.095Z,17.10
2023-05-11T11:45:54.684Z,17.20
2023-05-11T11:48:25.248Z,17.40
2023-05-11T11:51:05.590Z,17.50
2023-05-11T11:54:07.943Z,17.60
2023-05-11T11:56:45.077Z,17.80
2023-05-11T11:59:15.607Z,17.90
2023-05-11T12:01:46.096Z,17.80
2023-05-11T12:04:40.061Z,17.60
2023-05-11T12:07:14.391Z,17.60
2023-05-11T12:09:46.714Z,17.60
2023-05-11T12:12:18.352Z,17.80
2023-05-11T12:14:49.544Z,17.80
2023-05-11T12:17:25.510Z,17.70
2023-05-11T12:19:54.104Z,17.60
2023-05-11T12:22:27.291Z,17.60
2023-05-11T12:25:00.532Z,17.60
2023-05-11T12:27:29.270Z,17.40
2023-05-11T12:29:58.775Z,17.30
2023-05-11T12:32:29.337Z,17.30
2023-05-11T12:35:05.415Z,17.30
2023-05-11T12:37:36.386Z,17.30
2023-05-11T12:40:05.216Z,17.30
2023-05-11T12:42:35.193Z,17.30
2023-05-11T12:45:04.597Z,17.20
2023-05-11T12:47:33.735Z,17.40
2023-05-11T12:50:03.534Z,17.50
2023-05-11T12:52:32.467Z,17.90
2023-05-11T12:55:02.483Z,17.90
2023-05-11T12:57:33.676Z,18.00
2023-05-11T13:00:11.222Z,17.90
2023-05-11T13:02:47.022Z,18.00
2023-05-11T13:05:16.167Z,18.00
2023-05-11T13:07:45.353Z,18.00
2023-05-11T13:10:15.566Z,17.90
2023-05-11T13:12:51.885Z,18.00
2023-05-11T13:15:22.008Z,17.90
2023-05-11T13:17:58.136Z,17.80
2023-05-11T13:20:28.827Z,18.00
2023-05-11T13:23:08.299Z,18.20
2023-05-11T13:25:54.600Z,18.20
2023-05-11T13:28:24.901Z,18.30
2023-05-11T13:31:00.281Z,18.20
2023-05-11T13:33:29.402Z,18.20
2023-05-11T13:35:58.032Z,18.20
2023-05-11T13:38:26.557Z,18.20
2023-05-11T13:40:56.491Z,18.30
2023-05-11T13:43:24.952Z,18.40
2023-05-11T13:45:53.591Z,18.50
2023-05-11T13:48:22.243Z,18.60
2023-05-11T13:50:50.703Z,18.70
2023-05-11T13:53:19.208Z,18.90
2023-05-11T13:55:47.731Z,19.00
2023-05-11T13:58:17.979Z,19.00
2023-05-11T14:00:56.463Z,19.00
2023-05-11T14:03:33.561Z,18.90
2023-05-11T14:06:02.275Z,18.90
2023-05-11T14:08:30.769Z,18.90
2023-05-11T14:10:59.248Z,18.90
2023-05-11T14:13:29.255Z,18.90
2023-05-11T14:15:58.640Z,19.10
2023-05-11T14:18:27.514Z,19.40
2023-05-11T14:20:57.141Z,19.60
2023-05-11T14:23:25.995Z,19.80
2023-05-11T14:25:54.543Z,20.00
2023-05-11T14:28:23.086Z,20.10
2023-05-11T14:30:53.036Z,20.00
2023-05-11T14:33:21.559Z,20.10
2023-05-11T14:35:50.842Z,20.30
2023-05-11T14:38:19.474Z,20.30
2023-05-11T14:40:48.764Z,20.00
2023-05-11T14:43:19.219Z,19.60
2023-05-11T14:45:48.125Z,19.40
2023-05-11T14:48:18.803Z,19.40
2023-05-11T14:50:47.307Z,19.30
2023-05-11T14:53:16.006Z,19.30
2023-05-11T14:55:44.673Z,19.30
2023-05-11T14:58:13.285Z,19.30
2023-05-11T15:00:42.009Z,19.30
2023-05-11T15:03:11.325Z,19.30
2023-05-11T15:05:42.120Z,19.20
2023-05-11T15:08:18.538Z,19.20
2023-05-11T15:10:54.594Z,19.10
2023-05-11T15:13:23.509Z,19.10
2023-05-11T15:15:52.393Z,19.10
2023-05-11T15:18:21.123Z,19.00
2023-05-11T15:20:51.179Z,19.00
2023-05-11T15:23:19.836Z,19.00
2023-05-11T15:25:49.518Z,18.90
2023-05-11T15:28:18.072Z,18.90
2023-05-11T15:30:46.507Z,18.90
2023-05-11T15:33:16.018Z,19.00
2023-05-11T15:35:44.636Z,19.00
2023-05-11T15:38:14.589Z,19.00
2023-05-11T15:40:43.292Z,19.00
2023-05-11T15:43:11.748Z,19.00
2023-05-11T15:45:40.812Z,19.10
2023-05-11T15:48:09.815Z,19.10
2023-05-11T15:50:38.367Z,19.00
2023-05-11T15:53:06.843Z,19.10
2023-05-11T15:55:37.161Z,19.10
2023-05-11T15:58:08.529Z,19.20
2023-05-11T16:00:37.056Z,19.10
2023-05-11T16:03:07.041Z,19.10
2023-05-11T16:05:36.362Z,19.10
2023-05-11T16:08:04.992Z,19.10
2023-05-11T16:10:33.546Z,19.20
2023-05-11T16:13:03.527Z,19.20
2023-05-11T16:15:33.124Z,19.30
2023-05-11T16:18:04.620Z,19.40
2023-05-11T16:20:34.601Z,19.60
2023-05-11T16:23:03.213Z,19.80
2023-05-11T16:25:31.663Z,19.70
2023-05-11T16:28:00.160Z,19.70
2023-05-11T16:30:30.409Z,19.70
2023-05-11T16:32:59.225Z,19.70
2023-05-11T16:35:28.468Z,19.80
2023-05-11T16:37:57.203Z,19.80
2023-05-11T16:40:25.804Z,19.80
2023-05-11T16:42:54.895Z,19.70
2023-05-11T16:45:23.352Z,19.70
2023-05-11T16:47:53.721Z,19.60
2023-05-11T16:50:22.638Z,19.50
2023-05-11T16:52:51.333Z,19.40
2023-05-11T16:55:21.436Z,19.30
2023-05-11T16:57:51.703Z,19.20
2023-05-11T17:00:20.751Z,19.10
2023-05-11T17:02:49.720Z,19.00
2023-05-11T17:05:21.688Z,19.00
2023-05-11T17:07:50.253Z,18.90
2023-05-11T17:10:18.903Z,18.90
2023-05-11T17:12:47.763Z,18.80
2023-05-11T17:15:16.818Z,18.80
2023-05-11T17:17:45.438Z,18.60
2023-05-11T17:20:14.746Z,18.50
2023-05-11T17:22:46.219Z,18.40
2023-05-11T17:25:14.929Z,18.30
2023-05-11T17:27:44.495Z,18.20
2023-05-11T17:30:13.600Z,18.10
2023-05-11T17:32:45.379Z,18.00
2023-05-11T17:35:14.192Z,17.90
2023-05-11T17:37:42.944Z,17.90
2023-05-11T17:40:13.768Z,17.90
2023-05-11T17:42:42.331Z,17.80
2023-05-11T17:45:12.006Z,17.80
2023-05-11T17:47:40.686Z,17.70
2023-05-11T17:50:10.613Z,17.70
2023-05-11T17:52:39.076Z,17.60
2023-05-11T17:55:10.953Z,17.50
2023-05-11T17:57:42.260Z,17.40
2023-05-11T18:00:11.785Z,17.40
2023-05-11T18:02:40.623Z,17.40
2023-05-11T18:05:09.819Z,17.30
2023-05-11T18:07:38.593Z,17.30
2023-05-11T18:10:08.253Z,17.20
2023-05-11T18:12:37.406Z,17.10
2023-05-11T18:15:08.752Z,17.10
2023-05-11T18:17:37.563Z,17.00
2023-05-11T18:20:07.621Z,16.90
2023-05-11T18:22:36.937Z,16.90
2023-05-11T18:25:05.897Z,16.80
2023-05-11T18:27:34.428Z,16.80
2023-05-11T18:30:04.139Z,16.80
2023-05-11T18:32:34.271Z,16.70
2023-05-11T18:35:03.809Z,16.70
2023-05-11T18:37:35.553Z,16.60
2023-05-11T18:40:06.778Z,16.50
2023-05-11T18:42:35.499Z,16.40
2023-05-11T18:45:04.876Z,16.30
2023-05-11T18:47:36.057Z,16.20
2023-05-11T18:50:05.028Z,16.10
2023-05-11T18:52:33.733Z,16.10
2023-05-11T18:55:02.917Z,16.00
2023-05-11T18:57:34.346Z,16.00
2023-05-11T19:00:04.103Z,15.90
2023-05-11T19:02:33.460Z,15.90
2023-05-11T19:05:04.547Z,15.80
2023-05-11T19:07:34.068Z,15.70
2023-05-11T19:10:03.291Z,15.60
2023-05-11T19:12:32.046Z,15.50
2023-05-11T19:15:00.760Z,15.50
2023-05-11T19:17:29.575Z,15.40
2023-05-11T19:19:58.305Z,15.40
2023-05-11T19:22:28.642Z,15.40
2023-05-11T19:24:57.141Z,15.30
2023-05-11T19:27:25.885Z,15.30
2023-05-11T19:29:54.374Z,15.20
2023-05-11T19:32:23.590Z,15.10
2023-05-11T19:34:52.640Z,15.00
2023-05-11T19:37:21.772Z,15.00
2023-05-11T19:39:52.582Z,14.90
2023-05-11T19:42:28.687Z,14.90
2023-05-11T19:45:04.386Z,14.90
2023-05-11T19:47:33.218Z,14.90
2023-05-11T19:50:01.746Z,14.90
2023-05-11T19:52:30.509Z,15.00
2023-05-11T19:55:00.762Z,15.10
2023-05-11T19:57:30.580Z,15.10
2023-05-11T20:00:00.538Z,15.20
2023-05-11T20:02:29.589Z,15.20
2023-05-11T20:04:58.444Z,15.20
2023-05-11T20:07:27.640Z,15.20
2023-05-11T20:09:56.981Z,15.30
2023-05-11T20:12:27.152Z,15.40
2023-05-11T20:14:55.871Z,15.30
2023-05-11T20:17:24.392Z,15.40
2023-05-11T20:19:53.206Z,15.40
2023-05-11T20:22:22.898Z,15.40
2023-05-11T20:24:51.813Z,15.40
2023-05-11T20:27:20.332Z,15.40
2023-05-11T20:29:50.274Z,15.40
2023-05-11T20:32:19.710Z,15.30
2023-05-11T20:34:48.412Z,15.30
2023-05-11T20:37:17.135Z,15.30
2023-05-11T20:39:45.951Z,15.20
2023-05-11T20:42:14.852Z,15.20
2023-05-11T20:44:43.582Z,15.10
2023-05-11T20:47:13.600Z,15.00
2023-05-11T20:49:42.305Z,15.00
2023-05-11T20:52:11.405Z,14.90
2023-05-11T20:54:39.993Z,14.90
2023-05-11T20:57:09.582Z,14.80
2023-05-11T21:02:09.446Z,14.70
2023-05-11T21:04:39.404Z,14.60
2023-05-11T21:07:07.867Z,14.60
2023-05-11T21:09:36.735Z,14.50
2023-05-11T21:12:05.661Z,14.50
2023-05-11T21:14:34.135Z,14.40
2023-05-11T21:17:03.122Z,14.40
2023-05-11T21:19:31.653Z,14.40
2023-05-11T21:22:01.520Z,14.40
2023-05-11T21:24:30.003Z,14.40
2023-05-11T21:27:01.810Z,14.40
2023-05-11T21:29:30.342Z,14.40
2023-05-11T21:31:58.802Z,14.30
2023-05-11T21:34:27.293Z,14.30
2023-05-11T21:36:56.248Z,14.20
2023-05-11T21:39:26.374Z,14.20
2023-05-11T21:41:54.932Z,14.30
2023-05-11T21:44:23.614Z,14.20
2023-05-11T21:46:52.171Z,14.20
2023-05-11T21:49:20.663Z,14.20
2023-05-11T21:51:50.284Z,14.20
2023-05-11T21:54:22.274Z,14.10
2023-05-11T21:56:52.320Z,14.00
2023-05-11T21:59:21.255Z,14.00
2023-05-11T22:01:49.829Z,13.90
2023-05-11T22:04:18.437Z,13.80
2023-05-11T22:06:46.967Z,13.70
2023-05-11T22:09:15.469Z,13.80
2023-05-11T22:11:44.476Z,13.80
2023-05-11T22:14:14.402Z,13.90
2023-05-11T22:16:43.587Z,13.90
2023-05-11T22:19:12.151Z,14.00
2023-05-11T22:21:41.729Z,14.10
2023-05-11T22:24:10.754Z,14.10
2023-05-11T22:26:39.275Z,14.10
2023-05-11T22:29:07.773Z,14.10
2023-05-11T22:31:37.831Z,13.90
2023-05-11T22:34:06.316Z,14.00
2023-05-11T22:36:34.754Z,14.10
2023-05-11T22:39:05.437Z,14.10
2023-05-11T22:41:33.941Z,14.10
2023-05-11T22:44:02.424Z,14.20
2023-05-11T22:46:31.102Z,14.20
2023-05-11T22:49:01.301Z,14.20
2023-05-11T22:51:29.865Z,14.30
2023-05-11T22:53:58.362Z,14.30
2023-05-11T22:56:26.871Z,14.20
2023-05-11T22:58:57.250Z,14.20
2023-05-11T23:01:25.862Z,14.20
2023-05-11T23:03:54.424Z,14.10
2023-05-11T23:06:24.812Z,14.20
2023-05-11T23:08:53.504Z,14.20
2023-05-11T23:11:21.980Z,14.20
2023-05-11T23:13:50.470Z,14.10
2023-05-11T23:16:19.715Z,14.10
2023-05-11T23:18:48.293Z,14.20
2023-05-11T23:21:16.907Z,14.20
2023-05-11T23:23:46.905Z,14.10
2023-05-11T23:26:15.383Z,13.90
2023-05-11T23:28:44.549Z,13.70
2023-05-11T23:31:13.083Z,13.70
2023-05-11T23:33:42.005Z,13.70
2023-05-11T23:36:11.283Z,13.60
2023-05-11T23:38:39.705Z,13.60
2023-05-11T23:41:09.643Z,13.50
2023-05-11T23:43:38.555Z,13.50
2023-05-11T23:46:07.029Z,13.40
2023-05-11T23:48:35.536Z,13.30
2023-05-11T23:51:04.027Z,13.20
2023-05-11T23:53:32.618Z,13.00
2023-05-11T23:56:01.386Z,12.80
2023-05-11T23:58:31.294Z,12.80
